sensor_id;sensor_type;location;lat;lon;timestamp;pressure;altitude;pressure_sealevel;temperature;humidity
11621;BME280;5866;49.094;11.900;2023-01-28T00:00:56;96650.28;;;-0.06;100.00
11621;BME280;5866;49.094;11.900;2023-01-28T00:03:24;96651.66;;;0.15;100.00
11621;BME280;5866;49.094;11.900;2023-01-28T00:05:51;96655.50;;;-0.06;100.00
11621;BME280;5866;49.094;11.900;2023-01-28T00:08:20;96651.88;;;0.70;100.00
11621;BME280;5866;49.094;11.900;2023-01-28T00:10:47;96652.34;;;0.62;100.00
11621;BME280;5866;49.094;11.900;2023-01-28T00:13:15;96652.28;;;0.34;100.00
11621;BME280;5866;49.094;11.900;2023-01-28T00:15:44;96657.00;;;-0.02;100.00
11621;BME280;5866;49.094;11.900;2023-01-28T00:18:11;96660.72;;;-0.06;100.00
11621;BME280;5866;49.094;11.900;2023-01-28T00:20:39;96666.78;;;-0.06;100.00
11621;BME280;5866;49.094;11.900;2023-01-28T00:23:06;96665.59;;;0.30;100.00
11621;BME280;5866;49.094;11.900;2023-01-28T00:25:34;96663.91;;;-0.01;100.00
11621;BME280;5866;49.094;11.900;2023-01-28T00:28:01;96658.69;;;0.15;100.00
11621;BME280;5866;49.094;11.900;2023-01-28T00:30:29;96669.13;;;0.15;100.00
11621;BME280;5866;49.094;11.900;2023-01-28T00:32:58;96661.91;;;0.04;100.00
11621;BME280;5866;49.094;11.900;2023-01-28T00:35:25;96666.91;;;0.07;100.00
11621;BME280;5866;49.094;11.900;2023-01-28T00:37:52;96666.56;;;0.13;100.00
11621;BME280;5866;49.094;11.900;2023-01-28T00:40:20;96665.69;;;0.28;100.00
11621;BME280;5866;49.094;11.900;2023-01-28T00:42:47;96658.75;;;0.57;100.00
11621;BME280;5866;49.094;11.900;2023-01-28T00:45:15;96659.50;;;0.59;100.00
11621;BME280;5866;49.094;11.900;2023-01-28T00:47:43;96654.75;;;0.65;100.00
11621;BME280;5866;49.094;11.900;2023-01-28T00:50:12;96657.31;;;0.67;100.00
11621;BME280;5866;49.094;11.900;2023-01-28T00:52:40;96664.09;;;0.69;100.00
11621;BME280;5866;49.094;11.900;2023-01-28T00:55:08;96668.97;;;0.90;100.00
11621;BME280;5866;49.094;11.900;2023-01-28T00:57:35;96667.75;;;0.67;100.00
11621;BME280;5866;49.094;11.900;2023-01-28T01:00:04;96671.31;;;0.50;100.00
11621;BME280;5866;49.094;11.900;2023-01-28T01:02:32;96671.00;;;0.56;100.00
11621;BME280;5866;49.094;11.900;2023-01-28T01:05:00;96670.41;;;0.65;100.00
11621;BME280;5866;49.094;11.900;2023-01-28T01:07:30;96667.47;;;0.86;100.00
11621;BME280;5866;49.094;11.900;2023-01-28T01:10:08;96657.41;;;0.94;100.00
11621;BME280;5866;49.094;11.900;2023-01-28T01:12:36;96660.47;;;1.14;100.00
11621;BME280;5866;49.094;11.900;2023-01-28T01:15:05;96671.06;;;0.25;100.00
11621;BME280;5866;49.094;11.900;2023-01-28T01:17:34;96663.09;;;0.42;100.00
11621;BME280;5866;49.094;11.900;2023-01-28T01:20:03;96677.22;;;0.24;100.00
11621;BME280;5866;49.094;11.900;2023-01-28T01:22:33;96677.25;;;-0.21;100.00
11621;BME280;5866;49.094;11.900;2023-01-28T01:25:02;96686.75;;;-0.20;100.00
11621;BME280;5866;49.094;11.900;2023-01-28T01:27:30;96683.44;;;-0.08;100.00
11621;BME280;5866;49.094;11.900;2023-01-28T01:29:58;96678.22;;;-0.08;100.00
11621;BME280;5866;49.094;11.900;2023-01-28T01:32:28;96690.75;;;0.01;100.00
11621;BME280;5866;49.094;11.900;2023-01-28T01:34:56;96694.16;;;0.17;100.00
11621;BME280;5866;49.094;11.900;2023-01-28T01:37:24;96691.38;;;0.20;100.00
11621;BME280;5866;49.094;11.900;2023-01-28T01:39:53;96690.31;;;0.38;100.00
11621;BME280;5866;49.094;11.900;2023-01-28T01:42:21;96684.25;;;0.38;100.00
11621;BME280;5866;49.094;11.900;2023-01-28T01:44:54;96691.25;;;0.37;100.00
11621;BME280;5866;49.094;11.900;2023-01-28T01:47:24;96690.03;;;0.13;100.00
11621;BME280;5866;49.094;11.900;2023-01-28T01:49:54;96696.66;;;-0.11;100.00
11621;BME280;5866;49.094;11.900;2023-01-28T01:52:25;96701.81;;;-0.25;100.00
11621;BME280;5866;49.094;11.900;2023-01-28T01:54:59;96694.59;;;0.10;100.00
11621;BME280;5866;49.094;11.900;2023-01-28T01:57:30;96701.56;;;-0.36;100.00
11621;BME280;5866;49.094;11.900;2023-01-28T02:00:01;96691.09;;;-0.21;100.00
11621;BME280;5866;49.094;11.900;2023-01-28T02:02:35;96690.53;;;-0.26;100.00
11621;BME280;5866;49.094;11.900;2023-01-28T02:05:03;96695.66;;;-0.24;100.00
11621;BME280;5866;49.094;11.900;2023-01-28T02:07:32;96702.88;;;-0.29;100.00
11621;BME280;5866;49.094;11.900;2023-01-28T02:10:01;96695.22;;;-0.17;100.00
11621;BME280;5866;49.094;11.900;2023-01-28T02:12:32;96694.56;;;-0.20;100.00
11621;BME280;5866;49.094;11.900;2023-01-28T02:15:03;96697.34;;;-0.23;100.00
11621;BME280;5866;49.094;11.900;2023-01-28T02:17:32;96697.66;;;-0.29;100.00
11621;BME280;5866;49.094;11.900;2023-01-28T02:20:02;96692.63;;;-0.32;100.00
11621;BME280;5866;49.094;11.900;2023-01-28T02:22:51;96699.44;;;-0.14;100.00
11621;BME280;5866;49.094;11.900;2023-01-28T02:25:41;96694.06;;;-0.42;100.00
11621;BME280;5866;49.094;11.900;2023-01-28T02:28:22;96705.16;;;-0.54;100.00
11621;BME280;5866;49.094;11.900;2023-01-28T02:30:59;96711.91;;;-0.50;100.00
11621;BME280;5866;49.094;11.900;2023-01-28T02:33:32;96718.94;;;-0.37;100.00
11621;BME280;5866;49.094;11.900;2023-01-28T02:36:10;96717.59;;;-0.28;100.00
11621;BME280;5866;49.094;11.900;2023-01-28T02:38:43;96727.00;;;-0.10;100.00
11621;BME280;5866;49.094;11.900;2023-01-28T02:41:17;96729.84;;;0.01;100.00
11621;BME280;5866;49.094;11.900;2023-01-28T02:43:49;96735.13;;;0.60;100.00
11621;BME280;5866;49.094;11.900;2023-01-28T02:46:20;96735.28;;;0.57;100.00
11621;BME280;5866;49.094;11.900;2023-01-28T02:49:09;96726.31;;;0.91;100.00
11621;BME280;5866;49.094;11.900;2023-01-28T02:51:52;96721.28;;;1.02;100.00
11621;BME280;5866;49.094;11.900;2023-01-28T02:54:33;96725.94;;;0.83;100.00
11621;BME280;5866;49.094;11.900;2023-01-28T02:57:12;96735.03;;;0.76;100.00
11621;BME280;5866;49.094;11.900;2023-01-28T02:59:48;96724.97;;;0.70;100.00
11621;BME280;5866;49.094;11.900;2023-01-28T03:02:23;96728.34;;;0.42;100.00
11621;BME280;5866;49.094;11.900;2023-01-28T03:04:59;96734.91;;;0.63;100.00
11621;BME280;5866;49.094;11.900;2023-01-28T03:07:30;96725.66;;;0.88;100.00
11621;BME280;5866;49.094;11.900;2023-01-28T03:10:02;96733.00;;;0.81;100.00
11621;BME280;5866;49.094;11.900;2023-01-28T03:12:33;96731.38;;;1.08;100.00
11621;BME280;5866;49.094;11.900;2023-01-28T03:15:23;96714.09;;;1.06;100.00
11621;BME280;5866;49.094;11.900;2023-01-28T03:18:12;96722.31;;;1.14;100.00
11621;BME280;5866;49.094;11.900;2023-01-28T03:21:04;96726.69;;;0.85;100.00
11621;BME280;5866;49.094;11.900;2023-01-28T03:23:56;96731.00;;;1.00;100.00
11621;BME280;5866;49.094;11.900;2023-01-28T03:29:47;96730.19;;;0.40;100.00
11621;BME280;5866;49.094;11.900;2023-01-28T03:32:36;96734.09;;;1.07;100.00
11621;BME280;5866;49.094;11.900;2023-01-28T03:35:23;96729.06;;;1.32;100.00
11621;BME280;5866;49.094;11.900;2023-01-28T03:38:12;96724.66;;;1.46;100.00
11621;BME280;5866;49.094;11.900;2023-01-28T03:40:50;96739.22;;;1.22;100.00
11621;BME280;5866;49.094;11.900;2023-01-28T03:43:18;96719.53;;;1.31;100.00
11621;BME280;5866;49.094;11.900;2023-01-28T03:45:46;96729.94;;;0.89;100.00
11621;BME280;5866;49.094;11.900;2023-01-28T03:48:18;96730.41;;;0.95;100.00
11621;BME280;5866;49.094;11.900;2023-01-28T03:50:45;96735.28;;;1.01;100.00
11621;BME280;5866;49.094;11.900;2023-01-28T03:53:13;96742.84;;;1.20;100.00
11621;BME280;5866;49.094;11.900;2023-01-28T03:55:43;96737.81;;;1.31;100.00
11621;BME280;5866;49.094;11.900;2023-01-28T03:58:11;96733.63;;;1.14;100.00
11621;BME280;5866;49.094;11.900;2023-01-28T04:00:40;96741.50;;;0.99;100.00
11621;BME280;5866;49.094;11.900;2023-01-28T04:03:09;96739.00;;;0.97;100.00
11621;BME280;5866;49.094;11.900;2023-01-28T04:05:43;96732.66;;;1.01;100.00
11621;BME280;5866;49.094;11.900;2023-01-28T04:08:12;96742.44;;;0.84;100.00
11621;BME280;5866;49.094;11.900;2023-01-28T04:10:39;96741.88;;;0.93;100.00
11621;BME280;5866;49.094;11.900;2023-01-28T04:13:09;96732.88;;;0.98;100.00
11621;BME280;5866;49.094;11.900;2023-01-28T04:15:38;96740.59;;;0.86;100.00
11621;BME280;5866;49.094;11.900;2023-01-28T04:18:06;96746.56;;;1.16;100.00
11621;BME280;5866;49.094;11.900;2023-01-28T04:20:33;96748.91;;;1.34;100.00
11621;BME280;5866;49.094;11.900;2023-01-28T04:23:02;96740.78;;;1.67;100.00
11621;BME280;5866;49.094;11.900;2023-01-28T04:25:30;96746.13;;;1.23;100.00
11621;BME280;5866;49.094;11.900;2023-01-28T04:27:57;96754.91;;;0.78;100.00
11621;BME280;5866;49.094;11.900;2023-01-28T04:30:25;96756.38;;;0.98;100.00
11621;BME280;5866;49.094;11.900;2023-01-28T04:32:53;96764.09;;;1.00;100.00
11621;BME280;5866;49.094;11.900;2023-01-28T04:35:21;96771.22;;;0.82;100.00
11621;BME280;5866;49.094;11.900;2023-01-28T04:37:48;96774.19;;;0.62;100.00
11621;BME280;5866;49.094;11.900;2023-01-28T04:40:17;96769.66;;;0.50;100.00
11621;BME280;5866;49.094;11.900;2023-01-28T04:42:51;96763.00;;;1.18;100.00
11621;BME280;5866;49.094;11.900;2023-01-28T04:45:19;96767.75;;;0.67;100.00
11621;BME280;5866;49.094;11.900;2023-01-28T04:47:47;96768.19;;;0.30;100.00
11621;BME280;5866;49.094;11.900;2023-01-28T04:50:15;96770.38;;;0.22;100.00
11621;BME280;5866;49.094;11.900;2023-01-28T04:52:43;96772.56;;;0.30;100.00
11621;BME280;5866;49.094;11.900;2023-01-28T04:55:10;96776.25;;;0.41;100.00
11621;BME280;5866;49.094;11.900;2023-01-28T04:57:39;96772.03;;;0.54;100.00
11621;BME280;5866;49.094;11.900;2023-01-28T05:00:08;96777.66;;;0.02;100.00
11621;BME280;5866;49.094;11.900;2023-01-28T05:02:35;96772.41;;;0.17;100.00
11621;BME280;5866;49.094;11.900;2023-01-28T05:05:04;96770.19;;;0.25;100.00
11621;BME280;5866;49.094;11.900;2023-01-28T05:07:34;96772.69;;;0.42;100.00
11621;BME280;5866;49.094;11.900;2023-01-28T05:10:02;96777.50;;;0.34;100.00
11621;BME280;5866;49.094;11.900;2023-01-28T05:12:30;96776.50;;;0.52;100.00
11621;BME280;5866;49.094;11.900;2023-01-28T05:15:00;96768.81;;;0.49;100.00
11621;BME280;5866;49.094;11.900;2023-01-28T05:17:28;96774.03;;;0.49;100.00
11621;BME280;5866;49.094;11.900;2023-01-28T05:19:56;96767.34;;;0.30;100.00
11621;BME280;5866;49.094;11.900;2023-01-28T05:22:23;96767.13;;;0.48;100.00
11621;BME280;5866;49.094;11.900;2023-01-28T05:24:51;96774.34;;;0.59;100.00
11621;BME280;5866;49.094;11.900;2023-01-28T05:27:18;96769.34;;;0.40;100.00
11621;BME280;5866;49.094;11.900;2023-01-28T05:29:46;96771.19;;;0.38;100.00
11621;BME280;5866;49.094;11.900;2023-01-28T05:32:15;96774.06;;;0.34;100.00
11621;BME280;5866;49.094;11.900;2023-01-28T05:34:42;96769.94;;;0.45;100.00
11621;BME280;5866;49.094;11.900;2023-01-28T05:37:10;96768.78;;;0.35;100.00
11621;BME280;5866;49.094;11.900;2023-01-28T05:39:37;96769.59;;;0.65;100.00
11621;BME280;5866;49.094;11.900;2023-01-28T05:42:05;96764.22;;;1.26;100.00
11621;BME280;5866;49.094;11.900;2023-01-28T05:44:32;96764.88;;;1.44;100.00
11621;BME280;5866;49.094;11.900;2023-01-28T05:47:00;96768.31;;;1.02;100.00
11621;BME280;5866;49.094;11.900;2023-01-28T05:49:29;96769.16;;;1.31;100.00
11621;BME280;5866;49.094;11.900;2023-01-28T05:51:56;96769.53;;;1.11;100.00
11621;BME280;5866;49.094;11.900;2023-01-28T05:54:24;96782.91;;;0.61;100.00
11621;BME280;5866;49.094;11.900;2023-01-28T05:56:51;96781.44;;;1.01;100.00
11621;BME280;5866;49.094;11.900;2023-01-28T05:59:19;96783.13;;;1.02;100.00
11621;BME280;5866;49.094;11.900;2023-01-28T06:01:46;96792.38;;;1.07;100.00
11621;BME280;5866;49.094;11.900;2023-01-28T06:04:14;96784.31;;;1.40;100.00
11621;BME280;5866;49.094;11.900;2023-01-28T06:06:45;96779.03;;;1.26;100.00
11621;BME280;5866;49.094;11.900;2023-01-28T06:09:13;96776.31;;;1.98;100.00
11621;BME280;5866;49.094;11.900;2023-01-28T06:11:40;96775.56;;;1.96;100.00
11621;BME280;5866;49.094;11.900;2023-01-28T06:14:08;96775.47;;;1.97;100.00
11621;BME280;5866;49.094;11.900;2023-01-28T06:16:35;96779.94;;;2.09;100.00
11621;BME280;5866;49.094;11.900;2023-01-28T06:19:03;96784.50;;;1.65;100.00
11621;BME280;5866;49.094;11.900;2023-01-28T06:21:30;96793.25;;;1.50;100.00
11621;BME280;5866;49.094;11.900;2023-01-28T06:23:59;96795.22;;;1.46;100.00
11621;BME280;5866;49.094;11.900;2023-01-28T06:26:27;96800.47;;;1.03;100.00
11621;BME280;5866;49.094;11.900;2023-01-28T06:28:54;96801.75;;;0.82;100.00
11621;BME280;5866;49.094;11.900;2023-01-28T06:31:21;96802.56;;;0.82;100.00
11621;BME280;5866;49.094;11.900;2023-01-28T06:33:49;96810.22;;;0.55;100.00
11621;BME280;5866;49.094;11.900;2023-01-28T06:36:16;96810.06;;;0.58;100.00
11621;BME280;5866;49.094;11.900;2023-01-28T06:38:44;96814.94;;;0.64;100.00
11621;BME280;5866;49.094;11.900;2023-01-28T06:41:13;96810.50;;;0.80;100.00
11621;BME280;5866;49.094;11.900;2023-01-28T06:43:40;96817.84;;;1.04;100.00
11621;BME280;5866;49.094;11.900;2023-01-28T06:46:08;96829.38;;;0.86;100.00
11621;BME280;5866;49.094;11.900;2023-01-28T06:48:35;96823.69;;;0.63;100.00
11621;BME280;5866;49.094;11.900;2023-01-28T06:51:03;96833.81;;;0.54;100.00
11621;BME280;5866;49.094;11.900;2023-01-28T06:53:31;96837.72;;;0.76;100.00
11621;BME280;5866;49.094;11.900;2023-01-28T06:55:58;96840.63;;;0.56;100.00
11621;BME280;5866;49.094;11.900;2023-01-28T06:58:27;96838.50;;;1.22;100.00
11621;BME280;5866;49.094;11.900;2023-01-28T07:00:54;96834.59;;;0.86;100.00
11621;BME280;5866;49.094;11.900;2023-01-28T07:03:22;96840.50;;;0.73;100.00
11621;BME280;5866;49.094;11.900;2023-01-28T07:05:49;96841.31;;;0.90;100.00
11621;BME280;5866;49.094;11.900;2023-01-28T07:08:17;96844.94;;;1.17;100.00
11621;BME280;5866;49.094;11.900;2023-01-28T07:10:44;96849.34;;;1.01;100.00
11621;BME280;5866;49.094;11.900;2023-01-28T07:13:12;96852.28;;;0.80;100.00
11621;BME280;5866;49.094;11.900;2023-01-28T07:15:41;96852.44;;;1.07;100.00
11621;BME280;5866;49.094;11.900;2023-01-28T07:18:08;96851.78;;;1.04;100.00
11621;BME280;5866;49.094;11.900;2023-01-28T07:20:35;96863.38;;;0.84;100.00
11621;BME280;5866;49.094;11.900;2023-01-28T07:23:03;96863.47;;;0.37;100.00
11621;BME280;5866;49.094;11.900;2023-01-28T07:25:30;96860.75;;;0.54;100.00
11621;BME280;5866;49.094;11.900;2023-01-28T07:27:58;96867.13;;;0.49;100.00
11621;BME280;5866;49.094;11.900;2023-01-28T07:30:25;96871.50;;;0.48;100.00
11621;BME280;5866;49.094;11.900;2023-01-28T07:32:56;96866.78;;;0.70;100.00
11621;BME280;5866;49.094;11.900;2023-01-28T07:35:25;96867.31;;;0.30;100.00
11621;BME280;5866;49.094;11.900;2023-01-28T07:37:53;96872.88;;;0.24;100.00
11621;BME280;5866;49.094;11.900;2023-01-28T07:40:21;96873.22;;;0.49;100.00
11621;BME280;5866;49.094;11.900;2023-01-28T07:42:49;96868.44;;;0.71;100.00
11621;BME280;5866;49.094;11.900;2023-01-28T07:45:17;96870.50;;;0.66;100.00
11621;BME280;5866;49.094;11.900;2023-01-28T07:47:52;96871.06;;;0.71;100.00
11621;BME280;5866;49.094;11.900;2023-01-28T07:50:21;96880.09;;;0.50;100.00
11621;BME280;5866;49.094;11.900;2023-01-28T07:52:49;96880.78;;;0.54;100.00
11621;BME280;5866;49.094;11.900;2023-01-28T07:55:16;96877.69;;;0.93;100.00
11621;BME280;5866;49.094;11.900;2023-01-28T07:57:49;96874.66;;;0.85;100.00
11621;BME280;5866;49.094;11.900;2023-01-28T08:00:17;96878.28;;;0.52;100.00
11621;BME280;5866;49.094;11.900;2023-01-28T08:02:45;96880.09;;;0.50;100.00
11621;BME280;5866;49.094;11.900;2023-01-28T08:05:15;96880.84;;;0.21;100.00
11621;BME280;5866;49.094;11.900;2023-01-28T08:07:45;96882.81;;;0.33;100.00
11621;BME280;5866;49.094;11.900;2023-01-28T08:10:14;96876.06;;;0.14;100.00
11621;BME280;5866;49.094;11.900;2023-01-28T08:12:50;96882.97;;;0.30;100.00
11621;BME280;5866;49.094;11.900;2023-01-28T08:15:17;96883.16;;;0.27;100.00
11621;BME280;5866;49.094;11.900;2023-01-28T08:17:45;96880.97;;;0.35;100.00
11621;BME280;5866;49.094;11.900;2023-01-28T08:20:12;96886.31;;;0.63;100.00
11621;BME280;5866;49.094;11.900;2023-01-28T08:22:41;96889.28;;;0.57;100.00
11621;BME280;5866;49.094;11.900;2023-01-28T08:25:10;96888.03;;;0.64;100.00
11621;BME280;5866;49.094;11.900;2023-01-28T08:27:37;96899.63;;;0.74;100.00
11621;BME280;5866;49.094;11.900;2023-01-28T08:30:06;96904.28;;;0.99;100.00
11621;BME280;5866;49.094;11.900;2023-01-28T08:32:34;96895.69;;;1.71;100.00
11621;BME280;5866;49.094;11.900;2023-01-28T08:35:02;96902.31;;;1.62;100.00
11621;BME280;5866;49.094;11.900;2023-01-28T08:37:30;96904.88;;;1.34;100.00
11621;BME280;5866;49.094;11.900;2023-01-28T08:39:57;96902.56;;;1.14;100.00
11621;BME280;5866;49.094;11.900;2023-01-28T08:42:26;96899.22;;;1.12;100.00
11621;BME280;5866;49.094;11.900;2023-01-28T08:44:54;96899.47;;;1.51;100.00
11621;BME280;5866;49.094;11.900;2023-01-28T08:47:21;96890.09;;;2.19;100.00
11621;BME280;5866;49.094;11.900;2023-01-28T08:49:48;96885.13;;;3.22;100.00
11621;BME280;5866;49.094;11.900;2023-01-28T08:52:16;96888.69;;;1.71;100.00
11621;BME280;5866;49.094;11.900;2023-01-28T08:54:43;96892.06;;;1.87;100.00
11621;BME280;5866;49.094;11.900;2023-01-28T08:57:11;96893.56;;;1.77;100.00
11621;BME280;5866;49.094;11.900;2023-01-28T08:59:40;96894.59;;;2.03;100.00
11621;BME280;5866;49.094;11.900;2023-01-28T09:02:12;96890.00;;;1.78;100.00
11621;BME280;5866;49.094;11.900;2023-01-28T09:04:56;96900.78;;;1.44;100.00
11621;BME280;5866;49.094;11.900;2023-01-28T09:07:24;96910.91;;;1.78;100.00
11621;BME280;5866;49.094;11.900;2023-01-28T09:09:51;96904.38;;;1.71;100.00
11621;BME280;5866;49.094;11.900;2023-01-28T09:12:19;96905.50;;;2.23;100.00
11621;BME280;5866;49.094;11.900;2023-01-28T09:14:48;96891.63;;;2.64;100.00
11621;BME280;5866;49.094;11.900;2023-01-28T09:17:15;96905.19;;;2.83;100.00
11621;BME280;5866;49.094;11.900;2023-01-28T09:19:43;96894.72;;;2.42;100.00
11621;BME280;5866;49.094;11.900;2023-01-28T09:22:10;96905.88;;;2.03;100.00
11621;BME280;5866;49.094;11.900;2023-01-28T09:24:38;96913.06;;;2.14;100.00
11621;BME280;5866;49.094;11.900;2023-01-28T09:27:05;96918.75;;;1.78;100.00
11621;BME280;5866;49.094;11.900;2023-01-28T09:29:33;96907.66;;;2.45;100.00
11621;BME280;5866;49.094;11.900;2023-01-28T09:32:02;96915.59;;;2.01;100.00
11621;BME280;5866;49.094;11.900;2023-01-28T09:34:30;96909.13;;;2.49;100.00
11621;BME280;5866;49.094;11.900;2023-01-28T09:36:58;96911.06;;;2.60;100.00
11621;BME280;5866;49.094;11.900;2023-01-28T09:39:25;96905.56;;;2.50;100.00
11621;BME280;5866;49.094;11.900;2023-01-28T09:42:04;96910.44;;;2.83;100.00
11621;BME280;5866;49.094;11.900;2023-01-28T09:44:43;96916.56;;;3.22;100.00
11621;BME280;5866;49.094;11.900;2023-01-28T09:47:24;96915.59;;;3.63;100.00
11621;BME280;5866;49.094;11.900;2023-01-28T09:49:54;96919.44;;;3.05;100.00
11621;BME280;5866;49.094;11.900;2023-01-28T09:52:25;96926.03;;;2.43;100.00
11621;BME280;5866;49.094;11.900;2023-01-28T09:54:57;96919.84;;;2.59;100.00
11621;BME280;5866;49.094;11.900;2023-01-28T09:57:30;96929.63;;;2.14;100.00
11621;BME280;5866;49.094;11.900;2023-01-28T10:00:11;96937.53;;;1.85;100.00
11621;BME280;5866;49.094;11.900;2023-01-28T10:02:52;96929.63;;;2.00;100.00
11621;BME280;5866;49.094;11.900;2023-01-28T10:05:30;96944.25;;;1.60;100.00
11621;BME280;5866;49.094;11.900;2023-01-28T10:08:10;96932.16;;;1.44;100.00
11621;BME280;5866;49.094;11.900;2023-01-28T10:10:43;96926.09;;;1.43;100.00
11621;BME280;5866;49.094;11.900;2023-01-28T10:13:21;96935.25;;;1.21;100.00
11621;BME280;5866;49.094;11.900;2023-01-28T10:16:00;96933.31;;;1.54;100.00
11621;BME280;5866;49.094;11.900;2023-01-28T10:18:36;96936.84;;;1.53;100.00
11621;BME280;5866;49.094;11.900;2023-01-28T10:21:12;96932.03;;;1.75;100.00
11621;BME280;5866;49.094;11.900;2023-01-28T10:23:50;96931.69;;;2.09;100.00
11621;BME280;5866;49.094;11.900;2023-01-28T10:26:24;96932.22;;;2.28;100.00
11621;BME280;5866;49.094;11.900;2023-01-28T10:28:55;96915.78;;;2.81;100.00
11621;BME280;5866;49.094;11.900;2023-01-28T10:31:29;96922.78;;;2.81;100.00
11621;BME280;5866;49.094;11.900;2023-01-28T10:34:00;96926.03;;;2.43;100.00
11621;BME280;5866;49.094;11.900;2023-01-28T10:36:29;96927.34;;;2.51;100.00
11621;BME280;5866;49.094;11.900;2023-01-28T10:38:57;96931.84;;;1.78;100.00
11621;BME280;5866;49.094;11.900;2023-01-28T10:41:24;96935.88;;;1.84;100.00
11621;BME280;5866;49.094;11.900;2023-01-28T10:43:52;96929.78;;;2.39;100.00
11621;BME280;5866;49.094;11.900;2023-01-28T10:46:22;96935.28;;;1.65;100.00
11621;BME280;5866;49.094;11.900;2023-01-28T10:48:56;96933.13;;;1.57;100.00
11621;BME280;5866;49.094;11.900;2023-01-28T10:51:34;96932.03;;;2.03;100.00
11621;BME280;5866;49.094;11.900;2023-01-28T10:54:03;96924.41;;;1.86;100.00
11621;BME280;5866;49.094;11.900;2023-01-28T10:56:32;96926.53;;;1.80;100.00
11621;BME280;5866;49.094;11.900;2023-01-28T10:59:02;96915.69;;;2.14;100.00
11621;BME280;5866;49.094;11.900;2023-01-28T11:01:41;96915.00;;;2.53;100.00
11621;BME280;5866;49.094;11.900;2023-01-28T11:04:16;96918.00;;;2.87;100.00
11621;BME280;5866;49.094;11.900;2023-01-28T11:06:55;96917.72;;;2.51;100.00
11621;BME280;5866;49.094;11.900;2023-01-28T11:09:24;96920.66;;;2.18;100.00
11621;BME280;5866;49.094;11.900;2023-01-28T11:11:51;96912.91;;;2.17;100.00
11621;BME280;5866;49.094;11.900;2023-01-28T11:14:21;96920.00;;;2.29;100.00
11621;BME280;5866;49.094;11.900;2023-01-28T11:16:50;96919.53;;;2.08;100.00
11621;BME280;5866;49.094;11.900;2023-01-28T11:19:20;96925.16;;;1.88;100.00
11621;BME280;5866;49.094;11.900;2023-01-28T11:21:55;96923.81;;;2.37;100.00
11621;BME280;5866;49.094;11.900;2023-01-28T11:24:27;96924.31;;;2.30;100.00
11621;BME280;5866;49.094;11.900;2023-01-28T11:26:57;96921.59;;;2.31;100.00
11621;BME280;5866;49.094;11.900;2023-01-28T11:29:30;96931.69;;;2.09;100.00
11621;BME280;5866;49.094;11.900;2023-01-28T11:31:58;96930.16;;;1.77;100.00
11621;BME280;5866;49.094;11.900;2023-01-28T11:34:28;96928.44;;;2.20;100.00
11621;BME280;5866;49.094;11.900;2023-01-28T11:37:02;96932.78;;;2.48;100.00
11621;BME280;5866;49.094;11.900;2023-01-28T11:39:31;96916.44;;;2.85;100.00
11621;BME280;5866;49.094;11.900;2023-01-28T11:42:12;96918.84;;;2.88;100.00
11621;BME280;5866;49.094;11.900;2023-01-28T11:44:42;96921.78;;;3.10;100.00
11621;BME280;5866;49.094;11.900;2023-01-28T11:47:18;96916.13;;;3.16;100.00
11621;BME280;5866;49.094;11.900;2023-01-28T11:50:02;96916.53;;;3.10;100.00
11621;BME280;5866;49.094;11.900;2023-01-28T11:52:43;96916.63;;;2.82;100.00
11621;BME280;5866;49.094;11.900;2023-01-28T11:55:53;96923.25;;;1.76;100.00
11621;BME280;5866;49.094;11.900;2023-01-28T11:58:32;96916.16;;;2.34;100.00
11621;BME280;5866;49.094;11.900;2023-01-28T12:01:09;96908.47;;;2.46;100.00
11621;BME280;5866;49.094;11.900;2023-01-28T12:03:51;96903.09;;;3.14;100.00
11621;BME280;5866;49.094;11.900;2023-01-28T12:06:30;96908.59;;;2.16;100.00
11621;BME280;5866;49.094;11.900;2023-01-28T12:09:10;96913.41;;;1.66;100.00
11621;BME280;5866;49.094;11.900;2023-01-28T12:11:49;96924.19;;;1.61;100.00
11621;BME280;5866;49.094;11.900;2023-01-28T12:15:01;96909.16;;;1.93;100.00
11621;BME280;5866;49.094;11.900;2023-01-28T12:17:44;96904.22;;;1.88;100.00
11621;BME280;5866;49.094;11.900;2023-01-28T12:20:18;96908.50;;;2.17;100.00
11621;BME280;5866;49.094;11.900;2023-01-28T12:23:04;96896.00;;;1.94;100.00
11621;BME280;5866;49.094;11.900;2023-01-28T12:25:51;96891.69;;;2.21;100.00
11621;BME280;5866;49.094;11.900;2023-01-28T12:28:34;96890.00;;;2.34;100.00
11621;BME280;5866;49.094;11.900;2023-01-28T12:31:16;96900.72;;;2.16;100.00
11621;BME280;5866;49.094;11.900;2023-01-28T12:34:11;96897.09;;;2.32;100.00
11621;BME280;5866;49.094;11.900;2023-01-28T12:36:51;96901.78;;;1.99;100.00
11621;BME280;5866;49.094;11.900;2023-01-28T12:39:30;96897.59;;;1.97;100.00
11621;BME280;5866;49.094;11.900;2023-01-28T12:42:06;96908.59;;;1.74;100.00
11621;BME280;5866;49.094;11.900;2023-01-28T12:44:39;96904.97;;;2.04;100.00
11621;BME280;5866;49.094;11.900;2023-01-28T12:47:12;96908.09;;;2.37;100.00
11621;BME280;5866;49.094;11.900;2023-01-28T12:49:44;96901.03;;;1.97;100.00
11621;BME280;5866;49.094;11.900;2023-01-28T12:52:17;96904.94;;;1.62;100.00
11621;BME280;5866;49.094;11.900;2023-01-28T12:54:54;96902.53;;;1.87;100.00
11621;BME280;5866;49.094;11.900;2023-01-28T12:57:28;96906.53;;;1.79;100.00
11621;BME280;5866;49.094;11.900;2023-01-28T13:00:05;96903.75;;;1.68;100.00
11621;BME280;5866;49.094;11.900;2023-01-28T13:02:46;96895.31;;;1.77;100.00
11621;BME280;5866;49.094;11.900;2023-01-28T13:05:20;96898.56;;;1.52;100.00
11621;BME280;5866;49.094;11.900;2023-01-28T13:07:53;96904.56;;;1.68;100.00
11621;BME280;5866;49.094;11.900;2023-01-28T13:10:26;96910.16;;;1.62;100.00
11621;BME280;5866;49.094;11.900;2023-01-28T13:12:57;96909.63;;;1.71;100.00
11621;BME280;5866;49.094;11.900;2023-01-28T13:15:25;96913.50;;;1.50;100.00
11621;BME280;5866;49.094;11.900;2023-01-28T13:17:54;96917.84;;;1.65;100.00
11621;BME280;5866;49.094;11.900;2023-01-28T13:20:34;96914.34;;;1.21;100.00
11621;BME280;5866;49.094;11.900;2023-01-28T13:23:04;96911.28;;;1.28;100.00
11621;BME280;5866;49.094;11.900;2023-01-28T13:25:33;96911.75;;;1.21;100.00